createdAt,value
2019-03-26T00:00:56.122Z,76.32
2019-03-26T00:01:56.066Z,76.14
2019-03-26T00:02:56.073Z,76.14
2019-03-26T00:04:05.612Z,76.52
2019-03-26T00:04:56.093Z,76.99
2019-03-26T00:05:56.081Z,76.99
2019-03-26T00:06:56.133Z,76.99
2019-03-26T00:07:56.146Z,76.80
2019-03-26T00:08:56.096Z,77.09
2019-03-26T00:09:56.105Z,77.18
2019-03-26T00:10:56.137Z,76.90
2019-03-26T00:11:56.088Z,77.56
2019-03-26T00:12:56.119Z,77.56
2019-03-26T00:13:57.795Z,76.80
2019-03-26T00:14:56.094Z,77.28
2019-03-26T00:15:56.126Z,77.18
2019-03-26T00:16:56.121Z,77.18
2019-03-26T00:17:56.163Z,76.61
2019-03-26T00:18:56.230Z,77.09
2019-03-26T00:19:56.147Z,76.90
2019-03-26T00:20:56.169Z,76.99
2019-03-26T00:21:56.128Z,76.61
2019-03-26T00:22:56.163Z,76.71
2019-03-26T00:23:56.126Z,77.28
2019-03-26T00:24:56.116Z,76.90
2019-03-26T00:25:56.128Z,77.28
2019-03-26T00:26:56.195Z,76.80
2019-03-26T00:27:56.142Z,77.24
2019-03-26T00:28:56.192Z,77.09
2019-03-26T00:29:56.137Z,77.28
2019-03-26T00:30:56.166Z,77.66
2019-03-26T00:31:56.160Z,77.52
2019-03-26T00:32:56.182Z,77.47
2019-03-26T00:33:56.182Z,77.56
2019-03-26T00:34:56.205Z,77.47
2019-03-26T00:35:56.203Z,77.75
2019-03-26T00:36:56.210Z,77.56
2019-03-26T00:37:56.215Z,77.43
2019-03-26T00:38:56.177Z,77.33
2019-03-26T00:39:56.201Z,77.33
2019-03-26T00:40:56.224Z,78.09
2019-03-26T00:41:56.194Z,78.00
2019-03-26T00:42:56.182Z,78.19
2019-03-26T00:43:56.196Z,77.90
2019-03-26T00:44:56.256Z,78.19
2019-03-26T00:45:56.202Z,78.19
2019-03-26T00:46:56.243Z,78.09
2019-03-26T00:47:56.225Z,78.47
2019-03-26T00:48:56.226Z,78.38
2019-03-26T00:49:56.212Z,78.00
2019-03-26T00:50:56.242Z,78.19
2019-03-26T00:51:56.275Z,78.09
2019-03-26T00:52:56.204Z,78.56
2019-03-26T00:53:56.225Z,78.00
2019-03-26T00:54:56.266Z,77.81
2019-03-26T00:55:56.292Z,78.09
2019-03-26T00:56:56.263Z,78.38
2019-03-26T00:57:56.264Z,78.19
2019-03-26T00:58:56.240Z,78.66
2019-03-26T00:59:56.226Z,78.28
2019-03-26T01:00:56.281Z,78.38
2019-03-26T01:01:56.257Z,78.75
2019-03-26T01:02:56.270Z,78.28
2019-03-26T01:03:56.264Z,78.38
2019-03-26T01:04:56.273Z,78.09
2019-03-26T01:05:56.310Z,78.00
2019-03-26T01:06:56.285Z,78.19
2019-03-26T01:07:56.291Z,78.19
2019-03-26T01:08:56.396Z,78.19
2019-03-26T01:09:56.277Z,78.09
2019-03-26T01:10:56.383Z,78.09
2019-03-26T01:11:56.286Z,78.47
2019-03-26T01:12:56.320Z,78.28
2019-03-26T01:13:56.598Z,78.38
2019-03-26T01:14:56.275Z,78.56
2019-03-26T06:14:01.470Z,80.46
2019-03-26T06:15:01.274Z,79.99
2019-03-26T06:16:01.229Z,80.27
2019-03-26T06:17:01.813Z,79.61
2019-03-26T06:18:01.256Z,79.80
2019-03-26T06:19:00.990Z,79.65
2019-03-26T06:20:01.617Z,79.55
2019-03-26T06:21:01.096Z,79.27
2019-03-26T06:22:01.104Z,78.51
2019-03-26T06:23:00.999Z,78.42
2019-03-26T06:24:01.070Z,79.08
2019-03-26T06:25:01.225Z,78.61
2019-03-26T06:26:02.928Z,78.61
2019-03-26T06:27:02.487Z,77.94
2019-03-26T06:28:01.571Z,77.94
2019-03-26T06:29:06.403Z,77.56
2019-03-26T06:30:01.866Z,77.84
2019-03-26T06:31:01.048Z,77.56
2019-03-26T06:32:01.055Z,77.18
2019-03-26T06:33:01.052Z,77.09
2019-03-26T06:34:01.693Z,76.90
2019-03-26T06:35:01.026Z,76.75
2019-03-26T06:36:01.311Z,75.99
2019-03-26T06:37:01.121Z,75.42
2019-03-26T06:38:01.288Z,75.32
2019-03-26T06:39:01.205Z,75.23
2019-03-26T06:40:01.001Z,74.66
2019-03-26T07:05:43.564Z,70.70
2019-03-26T07:06:43.530Z,69.94
2019-03-26T07:07:43.532Z,70.26
2019-03-26T07:08:43.532Z,69.31
2019-03-26T07:09:43.571Z,69.21
2019-03-26T07:10:43.546Z,69.41
2019-03-26T07:11:43.538Z,69.69
2019-03-26T07:12:43.563Z,69.60
2019-03-26T07:13:43.541Z,69.41
2019-03-26T07:14:43.599Z,68.65
2019-03-26T07:15:43.597Z,68.74
2019-03-26T07:16:43.566Z,68.65
2019-03-26T07:17:43.576Z,68.74
2019-03-26T07:18:43.580Z,68.27
2019-03-26T07:19:43.600Z,67.98
2019-03-26T07:20:43.613Z,69.02
2019-03-26T07:21:49.510Z,68.74
2019-03-26T07:22:43.586Z,68.74
2019-03-26T07:23:43.605Z,68.27
2019-03-26T07:24:43.607Z,68.36
2019-03-26T07:25:43.637Z,68.36
2019-03-26T07:26:43.691Z,67.98
2019-03-26T07:27:43.597Z,68.07
2019-03-26T07:28:43.602Z,68.27
2019-03-26T07:29:43.611Z,68.27
2019-03-26T07:30:43.666Z,67.98
2019-03-26T07:31:43.660Z,68.46
2019-03-26T07:32:43.647Z,68.55
2019-03-26T07:33:43.660Z,67.88
2019-03-26T07:34:43.642Z,68.17
2019-03-26T07:35:43.639Z,67.60
2019-03-26T07:36:43.643Z,68.07
2019-03-26T07:37:45.508Z,67.41
2019-03-26T07:38:43.651Z,67.79
2019-03-26T07:39:43.657Z,67.69
2019-03-26T07:40:43.686Z,67.32
2019-03-26T07:41:43.668Z,67.73
2019-03-26T07:42:43.700Z,67.63
2019-03-26T07:43:43.750Z,67.35
2019-03-26T07:44:45.454Z,67.54
2019-03-26T07:45:43.694Z,67.25
2019-03-26T07:46:43.709Z,67.82
2019-03-26T07:47:43.754Z,66.87
2019-03-26T07:48:43.714Z,66.97
2019-03-26T07:49:43.699Z,67.16
2019-03-26T07:50:43.705Z,67.25
2019-03-26T07:51:43.709Z,67.25
2019-03-26T07:52:43.715Z,67.07
2019-03-26T07:53:43.754Z,66.59
2019-03-26T07:54:43.767Z,66.87
2019-03-26T07:55:44.119Z,66.68
2019-03-26T07:56:43.735Z,66.49
2019-03-26T07:57:43.740Z,66.72
2019-03-26T07:58:43.800Z,66.14
2019-03-26T07:59:43.755Z,66.05
2019-03-26T08:00:43.788Z,65.67
2019-03-26T08:01:43.756Z,65.00
2019-03-26T08:02:43.754Z,65.48
2019-03-26T08:03:43.820Z,65.29
2019-03-26T08:04:43.775Z,65.58
2019-03-26T08:05:43.776Z,65.38
2019-03-26T08:06:43.783Z,64.75
2019-03-26T08:07:43.771Z,64.47
2019-03-26T08:08:43.803Z,64.84
2019-03-26T08:09:43.818Z,64.37
2019-03-26T08:10:43.799Z,64.56
2019-03-26T08:11:43.803Z,63.99
2019-03-26T08:12:43.829Z,63.60
2019-03-26T08:13:43.839Z,63.70
2019-03-26T08:14:43.898Z,63.04
2019-03-26T08:15:43.838Z,62.65
2019-03-26T08:16:43.854Z,62.37
2019-03-26T08:17:45.353Z,62.27
2019-03-26T08:18:43.838Z,62.65
2019-03-26T08:19:43.891Z,62.46
2019-03-26T08:20:43.900Z,63.07
2019-03-26T08:21:43.858Z,62.46
2019-03-26T08:22:43.907Z,62.56
2019-03-26T08:23:43.871Z,62.85
2019-03-26T08:24:43.876Z,61.99
2019-03-26T08:25:43.891Z,62.59
2019-03-26T08:26:43.906Z,62.49
2019-03-26T08:27:43.900Z,61.99
2019-03-26T08:28:43.924Z,61.61
2019-03-26T08:29:43.898Z,61.61
2019-03-26T08:30:43.971Z,61.13
2019-03-26T08:31:43.913Z,61.22
2019-03-26T08:32:43.919Z,60.69
2019-03-26T08:33:43.946Z,60.21
2019-03-26T08:34:46.575Z,61.25
2019-03-26T08:35:44.003Z,60.97
2019-03-26T08:36:43.954Z,60.97
2019-03-26T08:37:43.979Z,60.69
2019-03-26T08:38:43.942Z,60.78
2019-03-26T08:39:43.978Z,59.92
2019-03-26T08:40:43.998Z,59.83
2019-03-26T08:41:43.995Z,59.64
2019-03-26T08:42:43.971Z,59.35
2019-03-26T08:43:43.968Z,59.67
2019-03-26T08:44:44.021Z,59.28
2019-03-26T08:45:43.991Z,59.57
2019-03-26T08:46:46.293Z,59.28
2019-03-26T08:47:44.041Z,59.38
2019-03-26T08:48:43.988Z,59.38
2019-03-26T08:49:43.997Z,59.28
2019-03-26T08:50:44.002Z,58.43
2019-03-26T08:51:44.045Z,57.95
2019-03-26T08:52:44.060Z,58.04
2019-03-26T08:53:44.031Z,58.24
2019-03-26T08:54:44.042Z,58.14
2019-03-26T08:55:44.058Z,58.52
2019-03-26T08:56:44.102Z,58.33
2019-03-26T08:57:44.047Z,58.14
2019-03-26T08:58:44.067Z,57.28
2019-03-26T08:59:44.073Z,57.38
2019-03-26T09:00:44.075Z,56.90
2019-03-26T09:01:44.089Z,57.09
2019-03-26T09:02:44.153Z,57.67
2019-03-26T09:03:44.087Z,56.90
2019-03-26T09:04:44.100Z,56.62
2019-03-26T09:05:44.120Z,56.33
2019-03-26T09:06:44.110Z,55.66
2019-03-26T09:07:44.130Z,55.95
2019-03-26T09:08:44.724Z,56.24
2019-03-26T09:09:44.128Z,55.95
2019-03-26T09:10:51.651Z,56.04
2019-03-26T09:11:44.140Z,55.95
2019-03-26T09:12:44.175Z,55.85
2019-03-26T09:13:44.156Z,56.33
2019-03-26T09:14:44.162Z,55.66
2019-03-26T09:15:44.165Z,55.54
2019-03-26T09:16:44.183Z,56.04
2019-03-26T09:17:44.821Z,56.14
2019-03-26T09:18:44.194Z,55.95
2019-03-26T09:19:44.280Z,56.04
2019-03-26T09:20:44.230Z,55.19
2019-03-26T09:21:44.219Z,54.71
2019-03-26T09:22:44.199Z,55.66
2019-03-26T09:23:44.261Z,55.85
2019-03-26T09:24:44.453Z,55.28
2019-03-26T09:25:44.235Z,55.47
2019-03-26T09:26:44.221Z,56.04
2019-03-26T09:27:44.308Z,56.33
2019-03-26T09:28:44.264Z,56.04
2019-03-26T09:29:44.228Z,55.88
2019-03-26T09:30:44.307Z,55.60
2019-03-26T09:31:44.235Z,55.41
2019-03-26T09:32:44.243Z,55.79
2019-03-26T09:33:44.260Z,54.83
2019-03-26T09:34:44.301Z,55.31
2019-03-26T09:35:44.474Z,54.74
2019-03-26T09:36:44.279Z,55.21
2019-03-26T09:37:44.299Z,55.12
2019-03-26T09:38:44.295Z,55.41
2019-03-26T09:39:44.308Z,54.74
2019-03-26T09:40:44.298Z,54.45
2019-03-26T09:41:44.366Z,54.10
2019-03-26T09:42:44.321Z,54.57
2019-03-26T09:43:44.316Z,54.64
2019-03-26T09:44:44.317Z,53.97
2019-03-26T09:45:44.336Z,53.88
2019-03-26T09:46:44.390Z,52.73
2019-03-26T09:47:44.361Z,52.48
2019-03-26T09:48:44.363Z,52.38
2019-03-26T09:49:44.360Z,52.28
2019-03-26T09:50:44.380Z,51.62
2019-03-26T09:51:44.378Z,50.95
2019-03-26T09:52:44.404Z,51.52
2019-03-26T09:53:44.381Z,51.04
2019-03-26T09:54:44.398Z,51.23
2019-03-26T09:55:44.406Z,51.33
2019-03-26T09:56:44.404Z,51.21
2019-03-26T09:57:44.441Z,51.12
2019-03-26T09:58:44.426Z,52.16
2019-03-26T09:59:44.422Z,52.73
2019-03-26T10:00:44.609Z,53.78
2019-03-26T10:01:44.430Z,54.74
2019-03-26T10:02:44.601Z,56.26
2019-03-26T10:03:44.454Z,56.26
2019-03-26T10:04:44.459Z,56.46
2019-03-26T10:05:44.453Z,56.10
2019-03-26T10:06:44.470Z,56.77
2019-03-26T10:07:45.997Z,56.38
2019-03-26T10:08:52.296Z,56.29
2019-03-26T10:09:44.503Z,56.67
2019-03-26T10:10:44.555Z,57.53
2019-03-26T10:11:44.505Z,57.34
2019-03-26T10:12:44.529Z,58.11
2019-03-26T10:13:44.541Z,58.61
2019-03-26T10:14:44.536Z,58.42
2019-03-26T10:15:44.536Z,57.94
2019-03-26T10:16:44.624Z,57.43
2019-03-26T10:17:44.565Z,57.53
2019-03-26T10:18:44.542Z,57.43
2019-03-26T10:19:44.566Z,56.67
2019-03-26T10:20:44.585Z,56.38
2019-03-26T10:21:44.557Z,56.38
2019-03-26T10:22:44.588Z,56.48
2019-03-26T10:23:44.597Z,56.58
2019-03-26T10:24:44.599Z,56.58
2019-03-26T10:25:44.594Z,55.53
2019-03-26T10:26:44.626Z,55.53
2019-03-26T10:27:44.623Z,56.01
2019-03-26T10:28:45.141Z,56.01
2019-03-26T10:29:44.638Z,56.29
2019-03-26T10:30:44.709Z,56.20
2019-03-26T10:31:44.868Z,55.98
2019-03-26T10:32:44.622Z,56.17
2019-03-26T10:33:44.642Z,56.58
2019-03-26T10:34:44.670Z,56.29
2019-03-26T10:35:44.695Z,56.29
2019-03-26T10:36:44.648Z,56.01
2019-03-26T10:37:44.672Z,56.01
2019-03-26T10:38:44.671Z,55.72
2019-03-26T10:39:44.682Z,55.53
2019-03-26T10:40:44.772Z,55.15
2019-03-26T10:41:44.723Z,55.72
2019-03-26T10:42:44.757Z,55.53
2019-03-26T10:43:44.692Z,55.15
2019-03-26T10:44:44.701Z,55.91
2019-03-26T10:45:44.734Z,56.10
2019-03-26T10:46:44.774Z,55.34
2019-03-26T10:47:44.735Z,56.10
2019-03-26T10:48:44.803Z,55.98
2019-03-26T10:49:44.732Z,56.46
2019-03-26T10:50:44.760Z,57.82
2019-03-26T10:51:44.774Z,56.55
2019-03-26T10:52:44.802Z,57.53
2019-03-26T10:53:44.798Z,56.87
2019-03-26T10:54:44.802Z,56.36
2019-03-26T10:55:44.788Z,56.26
2019-03-26T10:56:44.847Z,56.74
2019-03-26T10:57:44.788Z,56.46
2019-03-26T10:58:44.795Z,57.03
2019-03-26T10:59:44.816Z,57.70
2019-03-26T11:00:45.241Z,57.98
2019-03-26T11:01:44.812Z,57.63
2019-03-26T11:02:45.071Z,58.11
2019-03-26T11:03:44.899Z,57.34
2019-03-26T11:04:44.852Z,57.72
2019-03-26T11:05:44.837Z,57.06
2019-03-26T11:06:44.869Z,57.24
2019-03-26T11:07:44.860Z,57.06
2019-03-26T11:08:45.322Z,56.67
2019-03-26T11:09:44.914Z,56.89
2019-03-26T11:10:44.875Z,57.09
2019-03-26T11:11:44.883Z,56.51
2019-03-26T11:12:44.908Z,56.60
2019-03-26T11:13:44.916Z,56.13
2019-03-26T11:14:44.923Z,55.84
2019-03-26T11:15:44.931Z,55.18
2019-03-26T11:16:44.942Z,55.46
2019-03-26T11:17:45.016Z,55.36
2019-03-26T11:18:44.950Z,55.01
2019-03-26T11:19:46.402Z,54.53
2019-03-26T11:20:44.964Z,54.25
2019-03-26T11:21:44.943Z,54.06
2019-03-26T11:22:44.943Z,53.77
2019-03-26T11:23:44.966Z,53.96
2019-03-26T11:24:44.992Z,53.65
2019-03-26T11:25:45.020Z,54.22
2019-03-26T11:26:44.977Z,53.08
2019-03-26T11:27:44.977Z,54.22
2019-03-26T11:28:45.027Z,53.27
2019-03-26T11:29:45.045Z,53.45
2019-03-26T11:30:44.998Z,53.74
2019-03-26T11:31:45.056Z,53.27
2019-03-26T11:32:45.033Z,53.55
2019-03-26T11:33:45.033Z,52.98
2019-03-26T11:34:45.043Z,52.88
2019-03-26T11:35:45.082Z,53.45
2019-03-26T11:36:45.053Z,52.98
2019-03-26T11:37:45.062Z,53.84
2019-03-26T11:38:45.054Z,54.32
2019-03-26T11:39:45.080Z,52.95
2019-03-26T11:40:45.068Z,53.53
2019-03-26T11:41:45.107Z,53.33
2019-03-26T11:42:45.119Z,54.00
2019-03-26T11:43:45.090Z,53.81
2019-03-26T11:44:45.085Z,54.48
2019-03-26T11:45:45.108Z,55.05
2019-03-26T11:46:45.110Z,55.62
2019-03-26T11:47:45.170Z,55.72
2019-03-26T11:48:45.130Z,56.17
2019-03-26T11:49:45.134Z,56.38
2019-03-26T11:50:45.125Z,56.93
2019-03-26T11:51:45.140Z,57.53
2019-03-26T11:52:45.142Z,57.98
2019-03-26T11:53:45.201Z,58.26
2019-03-26T11:54:45.159Z,59.31
2019-03-26T11:55:45.175Z,60.08
2019-03-26T11:56:45.185Z,61.13
2019-03-26T11:57:45.190Z,61.41
2019-03-26T11:58:45.194Z,61.41
2019-03-26T11:59:45.218Z,62.24
2019-03-26T12:00:45.200Z,63.04
2019-03-26T12:01:45.208Z,62.72
2019-03-26T12:02:45.248Z,63.86
2019-03-26T12:03:45.205Z,66.44
2019-03-26T12:04:45.225Z,67.58
2019-03-26T12:05:45.236Z,68.05
2019-03-26T12:06:45.253Z,67.39
2019-03-26T12:07:45.245Z,67.83
2019-03-26T12:08:45.246Z,67.93
2019-03-26T12:09:46.796Z,70.21
2019-03-26T12:10:45.266Z,69.10
2019-03-26T12:11:45.259Z,68.72
2019-03-26T12:12:45.276Z,68.53
2019-03-26T12:13:45.287Z,68.15
2019-03-26T12:14:45.352Z,68.24
2019-03-26T12:15:45.293Z,68.24
2019-03-26T12:16:45.267Z,68.44
2019-03-26T12:17:45.276Z,68.53
2019-03-26T12:18:45.279Z,68.24
2019-03-26T12:19:45.282Z,68.05
2019-03-26T12:20:45.327Z,67.96
2019-03-26T12:21:45.322Z,67.58
2019-03-26T12:22:45.311Z,67.77
2019-03-26T12:23:45.311Z,67.77
2019-03-26T12:24:45.358Z,68.44
2019-03-26T12:25:45.377Z,68.34
2019-03-26T12:26:45.384Z,68.24
2019-03-26T12:27:45.347Z,68.21
2019-03-26T12:28:45.356Z,69.01
2019-03-26T12:29:45.344Z,69.39
2019-03-26T12:30:45.358Z,69.29
2019-03-26T12:31:45.406Z,69.68
2019-03-26T12:32:45.380Z,69.58
2019-03-26T12:33:45.372Z,69.20
2019-03-26T12:34:45.384Z,69.58
2019-03-26T12:35:45.425Z,69.48
2019-03-26T12:36:45.394Z,69.10
2019-03-26T12:37:45.449Z,69.01
2019-03-26T12:38:45.398Z,69.58
2019-03-26T12:39:58.605Z,69.68
2019-03-26T12:40:45.410Z,68.63
2019-03-26T12:41:45.417Z,68.53
2019-03-26T12:42:45.442Z,68.24
2019-03-26T12:43:45.454Z,69.10
2019-03-26T12:44:45.439Z,69.10
2019-03-26T12:45:45.444Z,68.72
2019-03-26T12:46:45.449Z,69.10
2019-03-26T12:47:45.486Z,68.44
2019-03-26T12:48:45.477Z,68.63
2019-03-26T12:49:45.489Z,68.47
2019-03-26T12:50:45.451Z,68.18
2019-03-26T12:51:45.487Z,68.57
2019-03-26T12:52:45.472Z,68.28
2019-03-26T12:53:45.487Z,68.66
2019-03-26T12:54:45.472Z,67.42
2019-03-26T12:55:45.483Z,67.52
2019-03-26T12:56:45.540Z,67.04
2019-03-26T12:57:45.507Z,67.46
2019-03-26T12:58:45.535Z,67.71
2019-03-26T12:59:45.511Z,67.33
2019-03-26T13:00:45.513Z,66.60
2019-03-26T13:01:45.532Z,67.17
2019-03-26T13:02:45.529Z,66.41
2019-03-26T13:03:45.639Z,66.41
2019-03-26T13:04:45.530Z,66.60
2019-03-26T13:05:45.567Z,66.41
2019-03-26T13:06:45.557Z,66.31
2019-03-26T13:07:45.568Z,66.22
2019-03-26T13:08:45.612Z,65.26
2019-03-26T13:09:45.628Z,65.26
2019-03-26T13:10:53.263Z,65.83
2019-03-26T13:11:45.604Z,64.85
2019-03-26T13:12:45.606Z,64.69
2019-03-26T13:13:45.617Z,65.52
2019-03-26T13:14:45.610Z,64.65
2019-03-26T13:15:45.663Z,64.75
2019-03-26T13:16:45.619Z,64.09
2019-03-26T13:17:45.622Z,64.85
2019-03-26T13:18:45.670Z,64.65
2019-03-26T13:19:45.639Z,65.04
2019-03-26T13:20:45.641Z,65.04
2019-03-26T13:21:45.669Z,64.56
2019-03-26T13:22:45.654Z,64.85
2019-03-26T13:23:45.669Z,64.18
2019-03-26T13:24:45.674Z,64.47
2019-03-26T13:25:45.689Z,64.75
2019-03-26T13:26:48.770Z,64.37
2019-03-26T13:27:45.756Z,64.85
2019-03-26T13:28:45.702Z,65.04
2019-03-26T13:29:45.701Z,64.94
2019-03-26T13:30:45.778Z,64.78
2019-03-26T13:31:45.725Z,63.73
2019-03-26T13:32:45.732Z,63.73
2019-03-26T13:33:45.737Z,63.73
2019-03-26T13:34:45.733Z,63.35
2019-03-26T13:35:45.737Z,63.16
2019-03-26T13:36:45.766Z,63.16
2019-03-26T13:37:45.765Z,62.78
2019-03-26T13:38:45.772Z,63.07
2019-03-26T13:39:45.767Z,63.26
2019-03-26T13:40:45.786Z,62.62
2019-03-26T13:41:45.786Z,62.43
2019-03-26T13:42:45.814Z,61.86
2019-03-26T13:43:45.803Z,62.05
2019-03-26T13:44:45.812Z,61.66
2019-03-26T13:45:45.821Z,61.29
2019-03-26T13:46:45.830Z,61.76
2019-03-26T13:47:45.833Z,61.66
2019-03-26T13:48:45.812Z,61.22
2019-03-26T13:49:45.841Z,61.47
2019-03-26T13:50:45.847Z,62.34
2019-03-26T13:51:45.854Z,60.90
2019-03-26T13:52:45.906Z,60.81
2019-03-26T13:53:45.868Z,60.81
2019-03-26T13:54:45.860Z,60.61
2019-03-26T13:55:45.894Z,60.52
2019-03-26T13:56:45.860Z,60.81
2019-03-26T13:57:45.897Z,60.90
2019-03-26T13:58:45.908Z,60.61
2019-03-26T13:59:48.889Z,62.30
2019-03-26T14:00:45.943Z,63.32
2019-03-26T14:01:45.933Z,63.89
2019-03-26T14:02:45.909Z,64.47
2019-03-26T14:03:45.953Z,65.80
2019-03-26T14:04:46.011Z,66.66
2019-03-26T14:05:45.921Z,67.00
2019-03-26T14:06:45.931Z,67.58
2019-03-26T14:07:45.945Z,65.58
2019-03-26T14:08:45.950Z,65.10
2019-03-26T14:09:45.943Z,65.58
2019-03-26T14:10:45.993Z,65.10
2019-03-26T14:11:45.983Z,64.72
2019-03-26T14:12:45.964Z,64.62
2019-03-26T14:13:45.986Z,64.53
2019-03-26T14:14:45.972Z,63.86
2019-03-26T14:15:46.037Z,63.96
2019-03-26T14:16:45.986Z,64.81
2019-03-26T14:17:45.998Z,64.34
2019-03-26T14:18:46.005Z,63.96
2019-03-26T14:19:46.004Z,63.29
2019-03-26T14:20:46.027Z,63.67
2019-03-26T14:21:46.029Z,63.20
2019-03-26T14:22:46.036Z,63.00
2019-03-26T14:23:46.037Z,62.72
2019-03-26T14:24:46.051Z,63.10
2019-03-26T14:25:46.088Z,63.10
2019-03-26T14:26:46.077Z,63.10
2019-03-26T14:27:46.058Z,63.10
2019-03-26T14:28:46.064Z,62.52
2019-03-26T14:29:46.067Z,62.81
2019-03-26T14:30:46.082Z,63.20
2019-03-26T14:31:46.095Z,62.15
2019-03-26T14:32:46.089Z,62.05
2019-03-26T14:33:46.130Z,63.10
2019-03-26T14:34:50.216Z,63.67
2019-03-26T14:35:46.116Z,63.10
2019-03-26T14:36:46.172Z,62.91
2019-03-26T14:37:51.502Z,62.75
2019-03-26T14:38:46.152Z,63.04
2019-03-26T14:39:46.115Z,62.08
2019-03-26T14:40:54.734Z,61.60
2019-03-26T14:41:46.119Z,61.80
2019-03-26T14:42:46.131Z,61.41
2019-03-26T14:43:46.164Z,61.41
2019-03-26T14:44:46.169Z,61.51
2019-03-26T14:45:46.150Z,61.60
2019-03-26T14:46:46.154Z,61.60
2019-03-26T14:47:46.197Z,61.41
2019-03-26T14:48:46.168Z,61.00
2019-03-26T14:49:46.170Z,61.41
2019-03-26T14:50:46.216Z,61.80
2019-03-26T14:51:46.181Z,62.24
2019-03-26T14:52:46.191Z,62.34
2019-03-26T14:53:46.243Z,61.57
2019-03-26T14:54:46.212Z,62.05
2019-03-26T14:55:46.262Z,63.10
2019-03-26T14:56:46.202Z,61.89
2019-03-26T14:57:46.217Z,61.86
2019-03-26T14:58:46.223Z,61.67
2019-03-26T14:59:46.289Z,61.38
2019-03-26T15:00:46.240Z,61.48
2019-03-26T15:01:46.302Z,61.86
2019-03-26T15:02:46.263Z,61.80
2019-03-26T15:03:46.264Z,61.76
2019-03-26T15:04:46.255Z,61.76
2019-03-26T15:05:46.275Z,61.70
2019-03-26T15:06:46.286Z,61.38
2019-03-26T15:07:46.289Z,61.99
2019-03-26T15:08:46.302Z,62.08
2019-03-26T15:09:46.286Z,61.89
2019-03-26T15:10:46.295Z,61.80
2019-03-26T15:11:46.295Z,61.41
2019-03-26T15:12:46.376Z,61.80
2019-03-26T15:13:49.333Z,61.80
2019-03-26T15:14:46.317Z,61.60
2019-03-26T15:15:46.325Z,61.41
2019-03-26T15:16:46.344Z,60.36
2019-03-26T15:17:46.345Z,59.70
2019-03-26T15:18:46.375Z,59.89
2019-03-26T15:19:46.390Z,59.70
2019-03-26T15:20:46.363Z,59.51
2019-03-26T15:21:46.349Z,59.03
2019-03-26T15:22:46.402Z,58.07
2019-03-26T15:23:46.364Z,57.12
2019-03-26T15:24:46.394Z,56.36
2019-03-26T15:25:46.372Z,56.65
2019-03-26T15:26:46.402Z,55.98
2019-03-26T15:27:46.429Z,55.88
2019-03-26T15:28:46.382Z,55.57
2019-03-26T15:29:46.391Z,55.19
2019-03-26T15:30:46.403Z,54.71
2019-03-26T15:31:46.414Z,54.43
2019-03-26T15:32:46.711Z,53.66
2019-03-26T15:33:46.462Z,53.00
2019-03-26T15:34:46.421Z,53.56
2019-03-26T15:35:46.434Z,52.71
2019-03-26T15:36:46.441Z,53.09
2019-03-26T15:37:46.460Z,53.56
2019-03-26T15:38:46.493Z,52.61
2019-03-26T15:39:46.503Z,50.78
2019-03-26T15:40:46.463Z,50.01
2019-03-26T15:41:46.470Z,50.01
2019-03-26T15:42:46.481Z,50.21
2019-03-26T15:43:46.475Z,50.01
2019-03-26T15:44:46.521Z,50.30
2019-03-26T15:45:46.484Z,49.73
2019-03-26T15:46:46.495Z,49.92
2019-03-26T15:47:46.498Z,50.49
2019-03-26T15:48:46.523Z,50.30
2019-03-26T15:49:46.507Z,49.92
2019-03-26T15:50:46.568Z,50.30
2019-03-26T15:51:46.511Z,50.68
2019-03-26T15:52:46.527Z,50.97
2019-03-26T15:53:46.538Z,50.68
2019-03-26T15:54:46.541Z,51.16
2019-03-26T15:55:46.553Z,51.16
2019-03-26T15:56:46.587Z,50.97
2019-03-26T15:57:46.589Z,51.06
2019-03-26T15:58:46.572Z,51.45
2019-03-26T15:59:46.596Z,51.35
